Time;durP1;ratioP1;P1;durP2;ratioP2;P2;SDS_P1;SDS_P2;PMS_P1;PMS_P2;Temp;Humidity;BMP_temperature;BMP_pressure;BME280_temperature;BME280_humidity;BME280_pressure;Samples;Min_cycle;Max_cycle;Signal;HPM_P1;HPM_P2
2023/12/12 00:01:26;;;;;;;8.00;5.25;;;;;;;4.86;100.00;99864.72;5003789;28;20054;-82
2023/12/12 00:04:00;;;;;;;9.05;5.10;;;;;;;4.85;100.00;99861.22;5002368;28;20054;-82
2023/12/12 00:06:33;;;;;;;7.40;5.05;;;;;;;4.85;100.00;99863.91;5002604;28;20471;-83
2023/12/12 00:09:06;;;;;;;7.80;4.90;;;;;;;4.80;100.00;99860.38;4996681;28;20046;-82
2023/12/12 00:11:39;;;;;;;6.88;5.15;;;;;;;4.79;100.00;99859.56;5005585;28;20060;-83
2023/12/12 00:14:13;;;;;;;8.50;5.55;;;;;;;4.77;100.00;99867.91;5000836;28;20061;-80
2023/12/12 00:16:47;;;;;;;7.90;5.15;;;;;;;4.81;100.00;99870.09;5000034;28;20069;-83
2023/12/12 00:19:20;;;;;;;6.88;4.55;;;;;;;4.77;100.00;99859.81;5004228;28;20065;-82
2023/12/12 00:21:49;;;;;;;7.47;5.03;;;;;;;4.72;100.00;99873.28;5001739;28;20403;-81
2023/12/12 00:24:22;;;;;;;7.20;4.63;;;;;;;4.68;100.00;99876.75;5003700;28;20073;-83
2023/12/12 00:26:51;;;;;;;7.75;5.05;;;;;;;4.71;100.00;99879.75;5003595;28;20050;-82
2023/12/12 00:29:20;;;;;;;7.97;5.13;;;;;;;4.70;100.00;99880.00;5018536;28;20072;-81
2023/12/12 00:31:49;;;;;;;8.48;5.00;;;;;;;4.71;100.00;99877.06;5004309;28;20056;-82
2023/12/12 00:34:17;;;;;;;7.50;5.30;;;;;;;4.70;100.00;99875.44;5003736;28;20045;-83
2023/12/12 00:36:51;;;;;;;8.57;4.93;;;;;;;4.71;100.00;99881.63;5015531;28;20061;-82
2023/12/12 00:39:19;;;;;;;6.78;4.35;;;;;;;4.68;100.00;99880.28;5000527;28;20049;-83
2023/12/12 00:41:52;;;;;;;7.10;4.70;;;;;;;4.71;100.00;99885.13;5000897;28;20046;-83
2023/12/12 00:44:20;;;;;;;9.50;5.28;;;;;;;4.72;100.00;99894.84;5001875;28;20054;-82
2023/12/12 00:46:50;;;;;;;7.05;4.80;;;;;;;4.71;100.00;99898.63;5004201;28;20054;-82
2023/12/12 00:49:23;;;;;;;6.18;4.07;;;;;;;4.72;100.00;99902.13;5004223;28;20157;-82
2023/12/12 00:51:52;;;;;;;8.93;4.97;;;;;;;4.71;100.00;99900.47;5003991;28;20182;-83
2023/12/12 00:54:26;;;;;;;7.47;5.00;;;;;;;4.76;100.00;99901.34;5015957;28;20073;-82
2023/12/12 00:56:59;;;;;;;8.90;5.00;;;;;;;4.74;100.00;99906.19;5001667;28;20050;-82
2023/12/12 00:59:32;;;;;;;8.68;4.70;;;;;;;4.71;100.00;99908.56;5001107;28;20479;-83
2023/12/12 01:02:07;;;;;;;7.88;5.03;;;;;;;4.71;100.00;99904.00;5002280;28;20061;-81
2023/12/12 01:04:40;;;;;;;8.15;4.82;;;;;;;4.77;100.00;99912.94;5001797;28;20507;-82
2023/12/12 01:07:13;;;;;;;7.68;5.00;;;;;;;4.69;100.00;99903.44;5001589;28;20043;-83
2023/12/12 01:09:47;;;;;;;7.75;4.28;;;;;;;4.72;100.00;99916.41;5001388;28;20478;-83
2023/12/12 01:12:15;;;;;;;7.97;4.68;;;;;;;4.77;100.00;99918.31;4998079;28;20957;-83
2023/12/12 01:14:48;;;;;;;7.88;4.78;;;;;;;4.77;100.00;99931.81;5004890;28;20034;-83
2023/12/12 01:17:23;;;;;;;7.20;4.68;;;;;;;4.80;100.00;99935.88;5003703;28;20043;-82
2023/12/12 01:19:51;;;;;;;9.18;5.72;;;;;;;4.76;100.00;99925.63;4999093;28;20046;-82
2023/12/12 01:22:24;;;;;;;9.00;5.75;;;;;;;4.80;100.00;99930.47;4999921;28;20058;-83
2023/12/12 01:24:52;;;;;;;8.00;4.85;;;;;;;4.77;100.00;99931.81;5003793;28;20058;-81
2023/12/12 01:27:20;;;;;;;14.85;4.95;;;;;;;4.77;100.00;99937.19;5003295;28;20069;-83
2023/12/12 01:29:54;;;;;;;6.75;4.25;;;;;;;4.78;100.00;99933.44;5006339;28;20069;-82
2023/12/12 01:32:29;;;;;;;8.05;5.18;;;;;;;4.76;100.00;99936.41;5005410;28;20057;-82
2023/12/12 01:35:02;;;;;;;7.57;4.78;;;;;;;4.74;100.00;99935.81;5006068;28;20065;-83
2023/12/12 01:37:35;;;;;;;8.75;5.50;;;;;;;4.80;100.00;99942.06;4998920;28;20045;-82
2023/12/12 01:40:04;;;;;;;7.57;5.40;;;;;;;4.80;100.00;99944.75;5001867;28;20568;-82
2023/12/12 01:42:32;;;;;;;8.02;5.10;;;;;;;4.79;100.00;99947.72;5002506;28;20065;-82
2023/12/12 01:45:01;;;;;;;9.23;4.78;;;;;;;4.82;100.00;99952.59;5005527;28;20049;-83
2023/12/12 01:47:30;;;;;;;6.32;4.28;;;;;;;4.73;100.00;99949.56;5003496;28;20045;-83
2023/12/12 01:50:05;;;;;;;8.13;5.47;;;;;;;4.73;100.00;99954.97;5005200;28;20050;-83
2023/12/12 01:52:34;;;;;;;7.68;4.85;;;;;;;4.72;100.00;99954.16;5003009;28;20057;-82
2023/12/12 01:55:08;;;;;;;10.15;5.53;;;;;;;4.71;100.00;99951.69;5003114;28;20050;-82
2023/12/12 01:57:42;;;;;;;9.88;4.45;;;;;;;4.74;100.00;99954.69;5007563;28;20421;-82
2023/12/12 02:00:12;;;;;;;7.18;4.53;;;;;;;4.69;100.00;99948.47;5018255;28;20054;-82
2023/12/12 02:02:47;;;;;;;7.55;5.22;;;;;;;4.74;100.00;99953.91;5003968;28;20060;-82
2023/12/12 02:05:20;;;;;;;7.93;5.07;;;;;;;4.71;100.00;99939.06;5005133;28;20058;-83
2023/12/12 02:07:57;;;;;;;7.50;4.70;;;;;;;4.75;100.00;99947.41;5001428;28;20065;-82
2023/12/12 02:10:26;;;;;;;9.00;4.85;;;;;;;4.75;100.00;99952.81;5004051;28;20054;-82
2023/12/12 02:12:59;;;;;;;8.40;5.30;;;;;;;4.73;100.00;99939.59;5003472;28;20057;-83
2023/12/12 02:15:27;;;;;;;8.73;5.32;;;;;;;4.76;100.00;99940.97;5005339;28;20049;-82
2023/12/12 02:18:02;;;;;;;7.80;4.82;;;;;;;4.74;100.00;99945.81;5008057;28;20050;-82
2023/12/12 02:20:31;;;;;;;7.95;4.88;;;;;;;4.76;100.00;99940.97;5004534;28;20058;-81
2023/12/12 02:23:00;;;;;;;9.52;4.60;;;;;;;4.77;100.00;99935.31;5001505;28;20069;-82
2023/12/12 02:25:33;;;;;;;7.15;4.68;;;;;;;4.79;100.00;99937.72;5007120;28;20046;-82
2023/12/12 02:28:08;;;;;;;5.82;4.00;;;;;;;4.72;100.00;99935.28;5001240;28;20525;-82
2023/12/12 02:30:36;;;;;;;8.23;5.13;;;;;;;4.67;100.00;99937.94;5000295;28;20050;-83
2023/12/12 02:33:05;;;;;;;8.18;4.72;;;;;;;4.72;100.00;99937.97;5001329;28;24372;-82
2023/12/12 02:35:33;;;;;;;9.40;5.40;;;;;;;4.66;100.00;99941.69;5006211;28;20060;-81
2023/12/12 02:38:02;;;;;;;11.05;6.13;;;;;;;4.60;100.00;99932.78;5006286;28;20041;-83
2023/12/12 02:40:30;;;;;;;9.80;5.55;;;;;;;4.72;100.00;99932.59;5006235;28;20058;-82
2023/12/12 02:43:04;;;;;;;14.82;6.35;;;;;;;4.67;100.00;99931.72;5002029;28;20069;-82
2023/12/12 02:45:32;;;;;;;12.23;6.30;;;;;;;4.68;100.00;99947.66;5007249;28;20061;-82
2023/12/12 02:48:06;;;;;;;11.68;6.28;;;;;;;4.56;100.00;99942.44;5005752;28;20054;-82
2023/12/12 02:50:39;;;;;;;12.43;5.88;;;;;;;4.60;100.00;99950.84;5002158;28;20605;-83
2023/12/12 02:53:13;;;;;;;10.80;6.38;;;;;;;4.63;100.00;99958.41;5002979;28;20046;-82
2023/12/12 02:55:47;;;;;;;12.07;6.05;;;;;;;4.60;100.00;99950.84;5004649;28;20049;-82
2023/12/12 02:58:15;;;;;;;15.05;4.32;;;;;;;4.56;100.00;99957.81;5005612;28;20384;-82
2023/12/12 03:00:48;;;;;;;14.20;5.65;;;;;;;4.65;100.00;99960.81;5004783;28;20068;-82
2023/12/12 03:03:21;;;;;;;13.18;4.60;;;;;;;4.58;100.00;99959.19;5003315;28;20046;-82
2023/12/12 03:05:54;;;;;;;7.97;4.43;;;;;;;4.58;100.00;99961.03;5001716;28;20373;-82
2023/12/12 03:08:24;;;;;;;9.60;5.03;;;;;;;4.58;100.00;99961.88;5003242;28;20061;-82
2023/12/12 03:10:57;;;;;;;10.77;4.80;;;;;;;4.61;100.00;99963.22;5003349;28;20061;-82
2023/12/12 03:13:25;;;;;;;11.70;5.78;;;;;;;4.58;100.00;99969.13;5004983;28;20050;-82
2023/12/12 03:15:53;;;;;;;10.38;5.05;;;;;;;4.57;100.00;99970.19;5004655;28;20068;-82
2023/12/12 03:18:21;;;;;;;10.43;5.50;;;;;;;4.63;100.00;99960.25;4998631;28;20069;-82
2023/12/12 03:20:55;;;;;;;11.07;5.00;;;;;;;4.57;100.00;99960.25;5007270;28;20042;-82
2023/12/12 03:23:25;;;;;;;9.80;4.53;;;;;;;4.62;100.00;99959.47;5001992;28;20470;-81
2023/12/12 03:25:58;;;;;;;8.93;4.65;;;;;;;4.59;100.00;99960.78;5004988;28;20069;-82
2023/12/12 03:28:31;;;;;;;12.77;4.90;;;;;;;4.59;100.00;99952.69;5004801;28;20050;-82
2023/12/12 03:31:04;;;;;;;8.98;4.82;;;;;;;4.60;100.00;99958.91;5003133;28;20045;-82
2023/12/12 03:33:37;;;;;;;13.55;5.80;;;;;;;4.59;100.00;99960.78;5003064;28;20054;-82
2023/12/12 03:36:11;;;;;;;9.30;4.65;;;;;;;4.61;100.00;99960.53;5004854;28;20101;-82
2023/12/12 03:38:40;;;;;;;7.72;4.57;;;;;;;4.63;100.00;99963.78;5004428;28;20042;-82
2023/12/12 03:41:14;;;;;;;8.48;5.03;;;;;;;4.59;100.00;99965.38;4999659;28;20060;-83
2023/12/12 03:43:47;;;;;;;9.73;5.53;;;;;;;4.63;100.00;99969.19;5018638;28;23847;-83
2023/12/12 03:46:16;;;;;;;8.10;4.68;;;;;;;4.62;100.00;99974.81;5002810;28;20045;-82
2023/12/12 03:48:49;;;;;;;9.02;4.55;;;;;;;4.63;100.00;99971.88;5001151;28;20042;-81
2023/12/12 03:51:23;;;;;;;11.57;5.60;;;;;;;4.59;100.00;99973.44;5004180;28;20406;-82
2023/12/12 03:53:52;;;;;;;10.25;5.05;;;;;;;4.52;100.00;99965.59;5005200;28;20058;-82
2023/12/12 03:56:25;;;;;;;7.95;4.75;;;;;;;4.51;100.00;99968.53;5001803;28;20049;-82
2023/12/12 03:58:53;;;;;;;8.55;4.95;;;;;;;4.52;100.00;99959.38;4998936;28;20057;-82
2023/12/12 04:01:22;;;;;;;8.70;4.85;;;;;;;4.53;100.00;99966.38;5000125;28;20068;-82
2023/12/12 04:03:56;;;;;;;9.45;4.80;;;;;;;4.61;100.00;99965.91;5003818;28;20082;-82
2023/12/12 04:06:24;;;;;;;8.43;4.88;;;;;;;4.50;100.00;99969.59;5005312;28;20052;-82
2023/12/12 04:08:58;;;;;;;7.82;4.80;;;;;;;4.49;100.00;99973.34;5003581;28;20046;-82
2023/12/12 04:11:32;;;;;;;9.57;5.15;;;;;;;4.52;100.00;99970.16;5006662;28;20058;-82
2023/12/12 04:14:05;;;;;;;8.68;4.47;;;;;;;4.52;100.00;99976.34;5003790;28;20042;-83
2023/12/12 04:16:39;;;;;;;7.50;4.70;;;;;;;4.54;100.00;99974.22;5004387;28;20061;-82
2023/12/12 04:19:12;;;;;;;10.77;5.40;;;;;;;4.53;100.00;99971.78;5002391;28;20417;-82
2023/12/12 04:21:42;;;;;;;10.48;4.95;;;;;;;4.57;100.00;99970.19;5002266;28;20046;-82
2023/12/12 04:24:12;;;;;;;8.93;5.20;;;;;;;4.53;100.00;99975.28;5000037;28;20054;-82
2023/12/12 04:26:45;;;;;;;8.70;4.43;;;;;;;4.51;100.00;99979.31;5003404;28;20062;-82
2023/12/12 04:29:18;;;;;;;9.35;5.25;;;;;;;4.58;100.00;99977.22;5000719;28;20659;-83
2023/12/12 04:31:51;;;;;;;10.05;5.30;;;;;;;4.53;100.00;99969.06;5016834;28;20062;-82
2023/12/12 04:34:24;;;;;;;9.80;4.47;;;;;;;4.51;100.00;99974.72;5019281;28;20062;-82
2023/12/12 04:36:58;;;;;;;11.10;5.15;;;;;;;4.54;100.00;99976.94;5003759;28;21608;-81
2023/12/12 04:39:33;;;;;;;9.85;5.68;;;;;;;4.52;100.00;99972.88;5003860;28;20410;-82
2023/12/12 04:42:01;;;;;;;8.35;4.82;;;;;;;4.50;100.00;99975.81;5003380;28;20767;-82
2023/12/12 04:44:35;;;;;;;9.02;5.38;;;;;;;4.52;100.00;99973.66;5005405;28;20049;-82
2023/12/12 04:47:08;;;;;;;9.13;5.10;;;;;;;4.47;100.00;99975.50;5000976;28;20046;-82
2023/12/12 04:49:37;;;;;;;11.27;5.95;;;;;;;4.51;100.00;99977.41;5000661;28;20675;-82
2023/12/12 04:52:10;;;;;;;13.63;5.75;;;;;;;4.54;100.00;99981.50;5000124;28;20644;-82
2023/12/12 04:54:39;;;;;;;10.55;5.93;;;;;;;4.52;100.00;99987.13;5005991;28;20603;-82
2023/12/12 04:57:08;;;;;;;10.80;5.40;;;;;;;4.52;100.00;99983.63;5015130;28;20395;-82
2023/12/12 04:59:36;;;;;;;9.73;5.55;;;;;;;4.52;100.00;99983.63;4997903;28;20062;-82
2023/12/12 05:02:04;;;;;;;9.10;4.60;;;;;;;4.52;100.00;99992.53;5003453;28;20445;-82
2023/12/12 05:04:38;;;;;;;9.57;5.72;;;;;;;4.52;100.00;99991.72;5000586;28;20066;-82
2023/12/12 05:07:06;;;;;;;9.27;5.32;;;;;;;4.54;100.00;99995.78;5002198;28;20057;-82
2023/12/12 05:09:41;;;;;;;8.90;5.50;;;;;;;4.52;100.00;99992.53;5001428;28;20054;-82
2023/12/12 05:12:09;;;;;;;10.05;5.63;;;;;;;4.51;100.00;99992.78;5000175;28;20462;-82
2023/12/12 05:14:38;;;;;;;8.75;5.25;;;;;;;4.53;100.00;99998.72;5005525;28;20062;-82
2023/12/12 05:17:11;;;;;;;8.30;5.25;;;;;;;4.52;100.00;99994.41;5004848;28;20053;-83
2023/12/12 05:19:44;;;;;;;12.10;5.90;;;;;;;4.55;100.00;99999.28;5005168;28;20383;-83
2023/12/12 05:22:12;;;;;;;9.98;5.85;;;;;;;4.49;100.00;100009.22;5007473;28;20057;-82
2023/12/12 05:24:42;;;;;;;11.38;5.90;;;;;;;4.50;100.00;100004.63;5005043;28;20471;-83
2023/12/12 05:27:10;;;;;;;9.75;4.95;;;;;;;4.46;100.00;100008.91;5005495;28;20046;-81
2023/12/12 05:29:43;;;;;;;11.23;5.68;;;;;;;4.59;100.00;100016.56;5018591;28;20062;-81
2023/12/12 05:32:11;;;;;;;15.45;6.43;;;;;;;4.61;100.00;100014.41;5007883;28;20726;-82
2023/12/12 05:34:44;;;;;;;10.55;6.00;;;;;;;4.59;100.00;100013.88;5006615;28;20050;-82
2023/12/12 05:37:17;;;;;;;10.90;5.22;;;;;;;4.49;100.00;100020.00;5007622;28;20066;-82
2023/12/12 05:39:47;;;;;;;10.93;5.90;;;;;;;4.53;100.00;100021.09;5010196;28;20050;-82
2023/12/12 05:42:15;;;;;;;13.02;6.50;;;;;;;4.42;100.00;100027.47;5005467;28;20058;-82
2023/12/12 05:44:49;;;;;;;10.93;6.30;;;;;;;4.42;100.00;100028.28;5004664;28;20045;-82
2023/12/12 05:47:22;;;;;;;14.02;5.90;;;;;;;4.39;100.00;100034.19;5005179;28;20061;-82
2023/12/12 05:49:50;;;;;;;12.43;5.55;;;;;;;4.45;100.00;100034.22;5001688;28;20466;-81
2023/12/12 05:52:23;;;;;;;9.93;5.68;;;;;;;4.36;100.00;100037.34;5004358;28;20049;-82
2023/12/12 05:54:58;;;;;;;9.15;4.90;;;;;;;4.44;100.00;100044.19;5006081;28;20113;-81
2023/12/12 05:57:27;;;;;;;10.77;4.57;;;;;;;4.45;100.00;100035.03;5006440;28;20063;-82
2023/12/12 05:59:56;;;;;;;8.85;5.45;;;;;;;4.46;100.00;100038.53;5004950;28;20402;-82
2023/12/12 06:02:39;;;;;;;9.35;5.07;;;;;;;4.46;100.00;100036.69;5004729;28;20403;-82
2023/12/12 06:05:13;;;;;;;8.68;4.95;;;;;;;4.47;100.00;100040.16;5006381;28;20769;-82
2023/12/12 06:07:46;;;;;;;10.88;5.00;;;;;;;4.48;100.00;100048.00;5007020;28;20064;-82
2023/12/12 06:10:21;;;;;;;7.85;4.38;;;;;;;4.47;100.00;100045.56;5005419;28;20038;-82
2023/12/12 06:12:54;;;;;;;10.52;5.30;;;;;;;4.42;100.00;100046.34;5003424;28;20053;-82
2023/12/12 06:15:28;;;;;;;10.93;5.72;;;;;;;4.33;100.00;100051.34;5008020;28;20073;-82
2023/12/12 06:18:01;;;;;;;8.43;4.88;;;;;;;4.37;100.00;100043.59;5006526;28;20113;-83
2023/12/12 06:20:32;;;;;;;11.93;6.47;;;;;;;4.40;100.00;100051.94;5005966;28;20053;-81
2023/12/12 06:23:06;;;;;;;8.30;4.90;;;;;;;4.42;100.00;100049.03;5020131;28;20053;-82
2023/12/12 06:25:36;;;;;;;9.20;5.07;;;;;;;4.43;100.00;100053.31;5005220;28;20058;-82
2023/12/12 06:28:09;;;;;;;11.60;5.28;;;;;;;4.42;100.00;100055.22;5019259;28;20066;-82
2023/12/12 06:30:42;;;;;;;9.55;5.05;;;;;;;4.38;100.00;100051.41;5005929;28;20034;-81
2023/12/12 06:33:10;;;;;;;8.75;4.90;;;;;;;4.47;100.00;100054.44;5002035;28;20053;-83
2023/12/12 06:35:43;;;;;;;10.35;5.80;;;;;;;4.39;100.00;100053.03;5001587;28;20046;-82
2023/12/12 06:38:12;;;;;;;8.60;5.38;;;;;;;4.43;100.00;100056.03;5002201;28;20045;-82
2023/12/12 06:40:46;;;;;;;10.20;5.70;;;;;;;4.45;100.00;100047.69;4999175;28;20050;-81
2023/12/12 06:43:15;;;;;;;11.07;5.40;;;;;;;4.47;100.00;100050.94;5000085;28;20065;-82
2023/12/12 06:45:49;;;;;;;9.15;4.93;;;;;;;4.39;100.00;100052.22;5004381;28;20055;-82
2023/12/12 06:48:22;;;;;;;10.65;5.53;;;;;;;4.39;100.00;100047.66;5002741;28;20042;-82
2023/12/12 06:50:50;;;;;;;15.80;4.68;;;;;;;4.39;100.00;100047.66;5007559;28;20615;-82
2023/12/12 06:53:18;;;;;;;9.90;5.03;;;;;;;4.37;100.00;100055.16;5005160;28;20053;-82
2023/12/12 06:55:54;;;;;;;8.35;4.63;;;;;;;4.41;100.00;100044.69;5007115;28;20057;-82
2023/12/12 06:58:23;;;;;;;9.77;5.28;;;;;;;4.42;100.00;100047.13;4999360;28;20049;-82
2023/12/12 07:00:51;;;;;;;11.40;6.15;;;;;;;4.38;100.00;100042.53;5006138;28;20056;-83
2023/12/12 07:03:24;;;;;;;11.02;5.25;;;;;;;4.39;100.00;100055.72;5004848;28;20054;-82
2023/12/12 07:05:57;;;;;;;9.88;5.22;;;;;;;4.42;100.00;100044.44;5000727;28;20054;-82
2023/12/12 07:08:30;;;;;;;9.95;5.18;;;;;;;4.43;100.00;100061.41;5001702;28;20054;-82
2023/12/12 07:11:05;;;;;;;10.25;4.35;;;;;;;4.43;100.00;100046.06;5002262;28;20046;-82
2023/12/12 07:13:39;;;;;;;10.38;5.28;;;;;;;4.40;100.00;100043.88;5004090;28;20054;-81
2023/12/12 07:16:12;;;;;;;9.15;4.28;;;;;;;4.51;100.00;100046.69;5004024;28;20053;-81
2023/12/12 07:18:45;;;;;;;10.48;5.28;;;;;;;4.49;100.00;100048.78;5016986;28;20049;-82
2023/12/12 07:21:18;;;;;;;9.20;5.28;;;;;;;4.42;100.00;100049.03;5004266;28;20513;-82
2023/12/12 07:23:53;;;;;;;6.72;4.43;;;;;;;4.39;100.00;100050.34;5002292;28;20065;-81
2023/12/12 07:26:27;;;;;;;12.13;5.13;;;;;;;4.39;100.00;100046.81;5016867;28;20582;-82
2023/12/12 07:28:55;;;;;;;5.93;3.55;;;;;;;4.40;100.00;100049.25;5000900;28;20457;-82
2023/12/12 07:31:28;;;;;;;5.93;3.45;;;;;;;4.37;100.00;100054.34;5002901;28;20061;-82
2023/12/12 07:33:57;;;;;;;7.55;3.78;;;;;;;4.40;100.00;100060.03;4999503;28;20046;-81
2023/12/12 07:36:30;;;;;;;9.48;5.13;;;;;;;4.38;100.00;100053.28;5001727;28;20057;-83
2023/12/12 07:39:04;;;;;;;6.60;3.53;;;;;;;4.40;100.00;100059.22;5002930;28;20046;-82
2023/12/12 07:41:38;;;;;;;8.63;4.55;;;;;;;4.37;100.00;100060.53;4999352;28;20053;-82
2023/12/12 07:44:12;;;;;;;8.48;4.18;;;;;;;4.36;100.00;100066.19;5002766;28;20399;-82
2023/12/12 07:46:40;;;;;;;9.07;4.88;;;;;;;4.36;100.00;100064.28;5002038;28;20054;-83
2023/12/12 07:49:13;;;;;;;6.18;3.58;;;;;;;4.39;100.00;100063.81;5017823;28;20921;-82
2023/12/12 07:51:47;;;;;;;7.30;4.47;;;;;;;4.38;100.00;100064.06;5006882;28;20073;-82
2023/12/12 07:54:15;;;;;;;7.55;3.50;;;;;;;4.41;100.00;100068.94;5002312;28;20054;-82
2023/12/12 07:56:44;;;;;;;8.02;4.30;;;;;;;4.39;100.00;100071.91;5003291;28;20041;-82
2023/12/12 07:59:18;;;;;;;6.90;3.75;;;;;;;4.36;100.00;100074.28;5004885;28;20058;-82
2023/12/12 08:01:46;;;;;;;6.05;3.47;;;;;;;4.42;100.00;100079.47;5001104;28;20042;-82
2023/12/12 08:04:20;;;;;;;7.20;4.20;;;;;;;4.43;100.00;100072.19;5000779;28;20049;-82
2023/12/12 08:06:49;;;;;;;7.03;3.95;;;;;;;4.46;100.00;100069.00;5001919;28;20057;-83
2023/12/12 08:09:23;;;;;;;7.40;4.40;;;;;;;4.49;100.00;100063.09;5004446;28;20483;-83
2023/12/12 08:11:58;;;;;;;6.65;3.55;;;;;;;4.50;100.00;100074.69;5005378;28;20050;-82
2023/12/12 08:14:31;;;;;;;5.40;3.08;;;;;;;4.48;100.00;100074.94;5003573;28;20068;-82
2023/12/12 08:16:59;;;;;;;7.40;3.03;;;;;;;4.47;100.00;100081.38;5018926;28;20054;-83
2023/12/12 08:19:32;;;;;;;7.80;4.30;;;;;;;4.49;100.00;100079.28;5004915;28;20057;-83
2023/12/12 08:22:05;;;;;;;8.43;4.55;;;;;;;4.50;100.00;100072.81;5001570;28;20030;-82
2023/12/12 08:24:34;;;;;;;7.25;4.18;;;;;;;4.49;100.00;100089.22;5002575;28;20057;-82
2023/12/12 08:27:04;;;;;;;10.00;4.45;;;;;;;4.49;100.00;100090.03;5002736;28;20053;-83
2023/12/12 08:29:37;;;;;;;6.75;4.05;;;;;;;4.53;100.00;100083.09;5007312;28;20490;-83
2023/12/12 08:32:06;;;;;;;9.38;3.50;;;;;;;4.56;100.00;100084.47;5002633;28;20050;-82
2023/12/12 08:34:39;;;;;;;4.93;3.42;;;;;;;4.52;100.00;100089.53;5001907;28;20053;-82
2023/12/12 08:37:12;;;;;;;5.63;3.33;;;;;;;4.51;100.00;100090.59;5006627;28;20061;-83
2023/12/12 08:39:45;;;;;;;8.80;4.50;;;;;;;4.56;100.00;100092.53;5005604;28;20415;-82
2023/12/12 08:42:20;;;;;;;7.43;3.78;;;;;;;4.52;100.00;100089.53;5001356;28;20049;-82
2023/12/12 08:44:53;;;;;;;5.90;3.28;;;;;;;4.47;100.00;100094.06;5014653;28;20088;-82
2023/12/12 08:47:27;;;;;;;6.38;2.95;;;;;;;4.48;100.00;100093.81;5007117;28;20056;-83
2023/12/12 08:50:00;;;;;;;8.95;3.28;;;;;;;4.46;100.00;100087.88;5010213;28;20050;-80
2023/12/12 08:52:33;;;;;;;6.78;3.80;;;;;;;4.47;100.00;100091.38;4996705;28;20050;-84
2023/12/12 08:55:03;;;;;;;7.10;4.13;;;;;;;4.46;100.00;100087.88;4996849;28;20782;-82
2023/12/12 08:57:38;;;;;;;5.70;3.05;;;;;;;4.51;100.00;100085.19;5000996;28;20409;-82
2023/12/12 09:00:10;;;;;;;5.60;3.05;;;;;;;4.57;100.00;100080.69;5002831;28;20387;-82
2023/12/12 09:02:44;;;;;;;6.60;3.30;;;;;;;4.60;100.00;100081.00;5000009;28;20054;-82
2023/12/12 09:05:13;;;;;;;4.63;3.00;;;;;;;4.58;100.00;100090.41;5004743;28;20073;-83
2023/12/12 09:07:46;;;;;;;6.18;3.45;;;;;;;4.59;100.00;100092.03;5001038;28;20042;-83
2023/12/12 09:10:19;;;;;;;5.25;2.83;;;;;;;4.60;100.00;100093.66;5002507;28;20495;-82
2023/12/12 09:12:49;;;;;;;5.03;2.92;;;;;;;4.62;100.00;100088.00;5006630;28;20058;-82
2023/12/12 09:15:22;;;;;;;6.00;3.50;;;;;;;4.63;100.00;100093.16;4999694;28;20487;-83
2023/12/12 09:17:55;;;;;;;5.38;3.03;;;;;;;4.54;100.00;100097.38;4996866;28;20769;-83
2023/12/12 09:20:24;;;;;;;3.10;2.42;;;;;;;4.56;100.00;100087.16;4998461;28;20060;-82
2023/12/12 09:22:57;;;;;;;6.13;3.20;;;;;;;4.60;100.00;100085.59;5003339;28;20045;-83
2023/12/12 09:25:25;;;;;;;7.28;2.97;;;;;;;4.67;100.00;100086.19;4956688;28;20735;-82
2023/12/12 09:28:00;;;;;;;7.22;3.58;;;;;;;4.65;100.00;100092.88;4984512;28;20065;-82
2023/12/12 09:30:28;;;;;;;6.28;3.58;;;;;;;4.57;100.00;100092.28;4986206;28;20064;-82
2023/12/12 09:32:56;;;;;;;6.78;3.28;;;;;;;4.53;100.00;100091.16;4984908;28;20057;-82
2023/12/12 09:35:30;;;;;;;4.78;2.83;;;;;;;4.59;100.00;100089.34;4965437;28;20054;-81
2023/12/12 09:38:03;;;;;;;3.78;2.78;;;;;;;4.66;100.00;100091.84;4987858;28;20058;-82
2023/12/12 09:40:39;;;;;;;4.53;3.00;;;;;;;4.68;100.00;100092.38;4977328;28;20057;-83
2023/12/12 09:43:15;;;;;;;4.20;2.90;;;;;;;4.81;100.00;100091.16;4986765;28;20049;-80
2023/12/12 09:45:46;;;;;;;6.80;3.35;;;;;;;4.72;100.00;100088.94;4984453;28;20054;-84
2023/12/12 09:48:19;;;;;;;4.72;2.55;;;;;;;4.75;100.00;100084.88;4981608;28;20054;-80
2023/12/12 09:50:56;;;;;;;6.47;3.35;;;;;;;4.74;100.00;100086.78;4980522;28;21213;-81
2023/12/12 09:53:35;;;;;;;5.15;3.10;;;;;;;4.75;100.00;100093.81;4984013;28;20061;-81
2023/12/12 09:56:10;;;;;;;7.10;3.53;;;;;;;4.71;100.00;100094.56;4992264;28;20540;-81
2023/12/12 09:58:47;;;;;;;6.22;3.33;;;;;;;4.76;100.00;100092.75;4985541;28;20057;-80
2023/12/12 10:01:22;;;;;;;6.43;3.72;;;;;;;4.77;100.00;100082.75;4976796;28;20764;-80
2023/12/12 10:03:51;;;;;;;6.57;3.60;;;;;;;4.75;100.00;100090.28;4980706;28;20471;-79
2023/12/12 10:06:20;;;;;;;9.02;4.45;;;;;;;4.75;100.00;100082.19;4981286;28;20759;-81
2023/12/12 10:08:48;;;;;;;7.63;4.47;;;;;;;4.79;100.00;100077.13;4983958;28;20076;-80
2023/12/12 10:11:22;;;;;;;7.13;4.03;;;;;;;4.82;100.00;100073.91;4980947;28;20061;-80
2023/12/12 10:13:54;;;;;;;9.82;4.97;;;;;;;4.78;100.00;100073.63;4980712;28;20046;-80
2023/12/12 10:16:22;;;;;;;6.75;3.67;;;;;;;4.85;100.00;100076.09;4985738;28;20057;-80
2023/12/12 10:18:56;;;;;;;7.03;4.03;;;;;;;4.83;100.00;100064.75;4976113;28;21884;-81
2023/12/12 10:21:30;;;;;;;8.38;4.43;;;;;;;4.82;100.00;100069.34;4988021;28;20793;-80
2023/12/12 10:23:59;;;;;;;7.38;4.28;;;;;;;4.77;100.00;100061.19;4988628;28;20058;-80
2023/12/12 10:26:29;;;;;;;9.65;5.03;;;;;;;4.83;100.00;100064.75;4945823;28;20705;-81
2023/12/12 10:29:04;;;;;;;8.63;4.40;;;;;;;4.80;100.00;100062.56;4982764;28;20061;-80
2023/12/12 10:31:37;;;;;;;9.88;4.85;;;;;;;4.85;100.00;100059.94;4978538;28;20042;-80
2023/12/12 10:34:10;;;;;;;9.23;4.53;;;;;;;4.84;100.00;100064.50;4990963;28;20787;-80
2023/12/12 10:36:47;;;;;;;9.60;4.43;;;;;;;4.88;100.00;100065.59;4990169;28;20065;-80
2023/12/12 10:39:21;;;;;;;9.85;5.10;;;;;;;4.92;100.00;100049.72;4983348;28;20033;-79
2023/12/12 10:41:55;;;;;;;9.80;5.20;;;;;;;4.96;100.00;100055.41;4988937;28;20062;-81
2023/12/12 10:44:33;;;;;;;9.30;5.30;;;;;;;4.96;100.00;100060.81;4985059;28;20793;-80
2023/12/12 10:47:03;;;;;;;9.13;4.75;;;;;;;5.00;100.00;100059.22;4984129;28;20061;-80
2023/12/12 10:49:38;;;;;;;10.05;5.22;;;;;;;5.04;100.00;100058.47;4984374;28;20041;-78
2023/12/12 10:52:08;;;;;;;11.13;5.28;;;;;;;5.07;100.00;100055.25;4986814;28;20068;-80
2023/12/12 10:54:43;;;;;;;10.52;5.55;;;;;;;5.09;100.00;100050.38;4995507;28;20046;-80
2023/12/12 10:57:12;;;;;;;13.57;5.57;;;;;;;5.06;100.00;100050.91;4974294;28;20997;-80
2023/12/12 10:59:48;;;;;;;9.93;5.03;;;;;;;5.11;100.00;100047.44;4983835;28;20045;-81
2023/12/12 11:02:17;;;;;;;10.32;5.22;;;;;;;5.15;100.00;100040.47;4982465;28;20053;-80
2023/12/12 11:04:47;;;;;;;12.02;6.07;;;;;;;5.12;100.00;100035.56;4988464;28;20486;-80
2023/12/12 11:07:20;;;;;;;7.85;4.45;;;;;;;5.10;100.00;100030.44;4993311;28;20054;-80
2023/12/12 11:09:49;;;;;;;10.52;5.35;;;;;;;5.12;100.00;100024.78;4985142;28;20690;-80
2023/12/12 11:12:22;;;;;;;10.55;5.68;;;;;;;5.18;100.00;100031.84;4988542;28;20050;-81
2023/12/12 11:14:57;;;;;;;8.88;4.70;;;;;;;5.21;100.00;100030.53;4985866;28;20054;-80
2023/12/12 11:17:31;;;;;;;10.05;5.68;;;;;;;5.20;100.00;100016.22;4985822;28;20041;-80
2023/12/12 11:20:14;;;;;;;12.23;5.65;;;;;;;5.18;100.00;100017.53;4990847;28;20050;-81
2023/12/12 11:22:49;;;;;;;9.68;4.90;;;;;;;5.18;100.00;100022.94;4990425;28;20057;-81
2023/12/12 11:25:23;;;;;;;10.80;4.78;;;;;;;5.17;100.00;100024.03;4972942;28;20066;-80
2023/12/12 11:27:52;;;;;;;10.82;5.32;;;;;;;5.14;100.00;100011.88;4988879;28;20072;-80
2023/12/12 11:30:30;;;;;;;8.70;4.55;;;;;;;5.24;100.00;100011.91;4978908;28;20061;-80
2023/12/12 11:32:58;;;;;;;9.15;4.47;;;;;;;5.18;100.00;100014.84;4990110;28;20049;-79
2023/12/12 11:35:32;;;;;;;8.77;5.25;;;;;;;5.13;100.00;100015.63;4983260;28;20298;-80
2023/12/12 11:38:27;;;;;;;11.77;5.03;;;;;;;5.13;100.00;100009.44;4989051;28;20089;-80
2023/12/12 11:41:10;;;;;;;9.25;5.18;;;;;;;5.14;100.00;100006.47;4988800;28;20056;-80
2023/12/12 11:43:44;;;;;;;10.63;5.05;;;;;;;5.12;100.00;100000.50;4992284;28;20549;-81
2023/12/12 11:46:21;;;;;;;7.00;4.50;;;;;;;5.12;100.00;99995.13;4983967;28;20071;-80
2023/12/12 11:48:55;;;;;;;9.43;3.80;;;;;;;5.13;100.00;99994.06;4983882;28;20093;-81